Terminal Aerodrome Forecast
Issued by NWS Charleston, WV

Current Version | Previous Version | Text Only | Print | Product List | Glossary Off
Versions: 1 2 3 4 5 6 7 8 9 10 11 12 13 14 15 16 17 18 19 20 21 22 23 24 25 26 27 28 29 30

000
FTUS41 KRLX 200200 AAA
TAFPKB
TAF AMD
KPKB 200205Z 2002/2024 09003KT 6SM BR SCT007 BKN025
     FM200500 00000KT 2SM BR BKN007 OVC015
     FM200900 00000KT 1SM BR SCT002 OVC006
     FM201200 00000KT 2SM BR OVC008
     FM201400 14002KT 4SM BR BKN015
     FM201500 18006KT P6SM BKN035
     FM202300 VRB02KT P6SM SCT040=

USA.gov is the U.S. government's official web portal to all federal, state and local government web resources and services.